Time;durP1;ratioP1;P1;durP2;ratioP2;P2;SDS_P1;SDS_P2;PMS_P1;PMS_P2;Temp;Humidity;BMP_temperature;BMP_pressure;BME280_temperature;BME280_humidity;BME280_pressure;Samples;Min_cycle;Max_cycle;Signal;HPM_P1;HPM_P2
2022/08/17 06:40:00;;;;;;;9.85;5.40;;;;;;;22.30;58.51;96116.59;2106673;27;20562;-68
2022/08/17 06:41:26;;;;;;;7.80;5.35;;;;;;;22.61;57.78;96113.53;2108270;28;20194;-68
2022/08/17 06:42:47;;;;;;;11.80;5.00;;;;;;;22.65;56.62;96114.03;2091206;28;20214;-68
2022/08/17 06:44:22;;;;;;;9.60;4.90;;;;;;;22.34;57.60;96109.13;2091383;28;20224;-69
2022/08/17 06:45:53;;;;;;;14.20;5.75;;;;;;;22.35;56.26;96116.94;2090793;28;20201;-68
2022/08/17 06:47:04;;;;;;;10.15;5.40;;;;;;;22.60;56.14;96114.50;2091041;28;20220;-68
2022/08/17 06:48:38;;;;;;;11.85;5.70;;;;;;;22.87;56.20;96111.81;2091547;28;20206;-68
2022/08/17 07:13:12;;;;;;;17.63;5.03;;;;;;;23.25;54.92;96094.56;2108218;27;20561;-66
2022/08/17 07:14:36;;;;;;;13.52;4.97;;;;;;;23.35;54.71;96094.44;2103412;28;20199;-66
2022/08/17 07:15:41;;;;;;;6.72;4.68;;;;;;;22.97;55.02;96094.75;2103243;28;20198;-66
2022/08/17 07:16:47;;;;;;;14.43;6.45;;;;;;;22.78;55.82;96095.81;2093579;28;20220;-66
2022/08/17 07:17:49;;;;;;;8.82;4.85;;;;;;;23.16;55.56;96103.53;2087060;28;20208;-66
2022/08/17 07:18:52;;;;;;;7.72;5.13;;;;;;;23.48;54.41;96105.44;2087476;28;20675;-66
2022/08/17 07:20:04;;;;;;;9.15;5.05;;;;;;;23.72;53.50;96106.50;2086189;28;20601;-68
2022/08/17 07:21:15;;;;;;;8.65;5.35;;;;;;;23.84;53.76;96107.00;2087110;28;20554;-67
2022/08/17 07:22:47;;;;;;;7.57;5.28;;;;;;;23.95;52.90;96105.91;2079075;28;20778;-67
2022/08/17 07:24:19;;;;;;;7.20;4.55;;;;;;;24.00;52.65;96113.38;2079399;28;20236;-67
2022/08/17 07:25:29;;;;;;;15.88;5.43;;;;;;;24.10;52.50;96114.91;2079431;28;20680;-68
2022/08/17 07:26:31;;;;;;;11.15;5.70;;;;;;;24.27;52.00;96113.06;2082073;28;20664;-67
2022/08/17 07:27:39;;;;;;;8.18;4.95;;;;;;;24.48;51.58;96124.22;2085039;28;20207;-67
2022/08/17 07:28:42;;;;;;;10.80;5.38;;;;;;;24.44;51.50;96121.91;2087396;28;20207;-67
2022/08/17 07:51:35;;;;;;;8.30;5.45;;;;;;;23.48;53.50;96140.06;2094780;27;20560;-66
2022/08/17 07:52:36;;;;;;;12.93;4.90;;;;;;;23.30;53.63;96116.22;2079549;28;20242;-66
2022/08/17 07:53:55;;;;;;;12.55;4.57;;;;;;;23.43;53.81;96153.03;2079551;28;20246;-66
2022/08/17 07:55:33;;;;;;;9.75;5.28;;;;;;;23.29;53.70;96156.31;2078763;28;20200;-66
2022/08/17 07:56:40;;;;;;;8.50;5.10;;;;;;;23.21;53.96;96154.47;2078381;28;20216;-67
2022/08/17 07:57:41;;;;;;;11.40;4.53;;;;;;;23.30;53.71;96152.69;2078053;28;20208;-67
2022/08/17 08:21:41;;;;;;;7.07;4.80;;;;;;;23.04;55.63;96173.97;2087497;28;20581;-66
2022/08/17 08:22:46;;;;;;;10.82;5.82;;;;;;;23.02;55.93;96186.59;2084106;28;20219;-66
2022/08/17 08:23:58;;;;;;;6.78;4.63;;;;;;;22.92;56.10;96181.38;2081881;28;20215;-67
2022/08/17 08:25:10;;;;;;;11.35;5.00;;;;;;;22.87;56.41;96173.03;2080121;28;20204;-66
2022/08/17 09:09:42;;;;;;;13.02;6.03;;;;;;;21.41;67.38;96205.00;2085073;28;20572;-70
2022/08/17 09:10:43;;;;;;;14.50;6.75;;;;;;;21.44;68.24;96207.38;2078508;28;20200;-70
2022/08/17 09:12:15;;;;;;;16.73;7.88;;;;;;;21.34;70.55;96199.44;2073986;28;20233;-70
2022/08/17 09:13:45;;;;;;;17.95;7.10;;;;;;;21.50;70.54;96204.97;2053282;28;20203;-70
2022/08/17 10:02:50;;;;;;;9.88;7.90;;;;;;;20.41;77.72;96253.09;2091482;27;21085;-65
2022/08/17 10:04:22;;;;;;;19.58;8.45;;;;;;;20.31;80.35;96249.63;2062080;28;20202;-64
2022/08/17 10:50:54;;;;;;;15.25;8.40;;;;;;;19.12;84.73;96310.25;2086612;28;20556;-64
2022/08/17 10:51:59;;;;;;;15.52;8.68;;;;;;;19.09;84.38;96311.34;2079636;28;20245;-65
2022/08/17 10:53:00;;;;;;;17.00;8.43;;;;;;;19.08;83.97;96312.31;2078482;28;20205;-65
2022/08/17 10:54:04;;;;;;;11.35;8.43;;;;;;;19.13;84.08;96304.81;2068519;28;20202;-64
2022/08/17 10:55:13;;;;;;;12.38;9.43;;;;;;;19.13;85.17;96302.16;2067990;28;20198;-64
2022/08/17 10:56:17;;;;;;;15.80;9.13;;;;;;;19.29;85.13;96320.25;2067574;28;20228;-65
2022/08/17 11:13:37;;;;;;;11.45;7.63;;;;;;;20.11;81.30;96315.84;2101592;27;20545;-64
2022/08/17 11:14:48;;;;;;;13.88;7.05;;;;;;;20.01;81.34;96313.19;2095615;28;20202;-64
2022/08/17 11:15:55;;;;;;;14.90;8.63;;;;;;;20.23;82.28;96312.09;2094890;28;20192;-63
2022/08/17 11:17:19;;;;;;;10.60;7.70;;;;;;;20.49;82.18;96306.28;2088054;28;20233;-66
2022/08/17 11:18:41;;;;;;;31.13;19.25;;;;;;;20.75;82.98;96294.28;2086956;28;20718;-64
2022/08/17 11:19:52;;;;;;;189.15;122.32;;;;;;;20.98;81.13;96298.34;2087190;28;20201;-63
2022/08/17 11:34:37;;;;;;;11.38;7.55;;;;;;;21.95;80.06;96291.06;2085938;28;20564;-62
2022/08/17 11:35:50;;;;;;;10.10;7.97;;;;;;;21.96;80.04;96292.72;2079518;28;20198;-62
2022/08/17 11:37:28;;;;;;;10.05;7.18;;;;;;;21.96;78.64;96292.72;2072473;28;20767;-63
2022/08/17 11:38:46;;;;;;;7.97;6.70;;;;;;;22.15;77.76;96293.59;2070703;28;20210;-62
2022/08/17 11:39:59;;;;;;;13.45;6.30;;;;;;;21.90;75.44;96298.63;2069408;28;20657;-63
2022/08/17 11:41:06;;;;;;;9.43;6.15;;;;;;;21.63;77.22;96300.28;2071472;28;20218;-62
2022/08/17 11:42:25;;;;;;;7.95;5.90;;;;;;;21.98;78.25;96300.56;2070925;28;20686;-62
2022/08/17 11:43:44;;;;;;;12.35;5.85;;;;;;;21.97;76.45;96299.72;2070643;28;20206;-63
2022/08/17 11:59:43;;;;;;;10.50;7.03;;;;;;;21.70;77.00;96287.28;2100194;27;20548;-62
2022/08/17 12:00:45;;;;;;;9.95;6.25;;;;;;;21.90;78.28;96280.00;2092632;28;20204;-63
2022/08/17 12:01:55;;;;;;;9.05;5.60;;;;;;;21.96;76.94;96274.13;2090759;28;20699;-63
2022/08/17 12:03:37;;;;;;;7.00;5.85;;;;;;;21.84;74.71;96276.16;2079557;28;20190;-63
2022/08/17 12:05:26;;;;;;;9.52;6.68;;;;;;;22.12;76.33;96275.31;2080044;28;20212;-63
2022/08/17 12:06:37;;;;;;;10.15;6.20;;;;;;;22.33;73.46;96270.53;2084652;28;20319;-63
2022/08/17 12:24:35;;;;;;;7.90;6.65;;;;;;;22.46;76.05;96213.47;2100910;27;20552;-62
2022/08/17 12:26:09;;;;;;;20.13;6.18;;;;;;;22.54;73.81;96226.84;2095641;28;20189;-63
2022/08/17 12:27:11;;;;;;;13.80;6.90;;;;;;;22.53;74.58;96221.69;2095285;28;20686;-62
2022/08/17 12:28:26;;;;;;;19.17;7.53;;;;;;;22.55;73.95;96233.00;2095676;28;20196;-63
2022/08/17 12:29:30;;;;;;;14.07;5.88;;;;;;;22.55;75.25;96228.53;2094881;28;20202;-63
2022/08/17 12:41:37;;;;;;;7.40;5.43;;;;;;;22.29;73.52;96209.81;2096486;27;21060;-62
2022/08/17 12:42:40;;;;;;;5.85;4.45;;;;;;;22.24;70.48;96204.94;2089690;28;20192;-62
2022/08/17 12:43:41;;;;;;;6.15;4.53;;;;;;;22.41;71.08;96202.47;2089941;28;20217;-62
2022/08/17 12:44:43;;;;;;;10.85;5.05;;;;;;;22.49;71.65;96207.88;2090932;28;20271;-63
2022/08/17 12:45:56;;;;;;;10.15;5.07;;;;;;;22.62;70.37;96204.81;2090421;28;20216;-63
2022/08/17 12:47:02;;;;;;;9.25;4.90;;;;;;;22.90;69.18;96204.66;2087202;28;20235;-63
2022/08/17 12:48:11;;;;;;;8.18;5.18;;;;;;;22.95;67.86;96211.19;2099768;28;20202;-63
2022/08/17 12:49:25;;;;;;;14.68;4.55;;;;;;;23.21;68.37;96201.53;2093561;28;20200;-64
2022/08/17 12:50:27;;;;;;;7.75;4.80;;;;;;;23.47;69.27;96206.84;2092973;28;20305;-63
2022/08/17 12:51:30;;;;;;;7.20;4.55;;;;;;;23.82;68.57;96202.31;2091426;28;20597;-63
2022/08/17 12:52:36;;;;;;;7.10;5.25;;;;;;;23.96;67.79;96204.38;2091863;28;20817;-63
2022/08/17 12:53:39;;;;;;;7.93;4.70;;;;;;;24.04;66.92;96203.56;2087485;28;20637;-63
2022/08/17 12:54:54;;;;;;;5.53;4.93;;;;;;;23.86;65.36;96210.78;2087450;28;20224;-63
2022/08/17 12:56:00;;;;;;;13.20;5.55;;;;;;;24.31;65.32;96206.94;2090234;28;20193;-64
2022/08/17 12:57:11;;;;;;;8.07;4.95;;;;;;;24.45;61.74;96206.28;2090630;28;20279;-64
2022/08/17 12:58:20;;;;;;;8.52;4.30;;;;;;;24.92;60.78;96202.13;2092132;28;20205;-64
2022/08/17 12:59:22;;;;;;;9.27;5.00;;;;;;;25.86;59.73;96203.31;2090538;28;20205;-64
2022/08/17 13:00:42;;;;;;;10.45;5.30;;;;;;;26.35;58.71;96202.22;2097967;28;20192;-64
2022/08/17 13:01:49;;;;;;;20.40;5.90;;;;;;;26.93;58.13;96199.09;2090454;28;20225;-64
2022/08/17 13:02:57;;;;;;;8.07;5.20;;;;;;;27.30;57.32;96210.75;2083120;28;20198;-64
2022/08/17 13:03:59;;;;;;;7.80;4.88;;;;;;;27.08;58.98;96207.97;2083181;28;20549;-64
2022/08/17 13:05:01;;;;;;;7.40;4.70;;;;;;;27.39;53.88;96209.69;2083082;28;20207;-64
2022/08/17 13:06:09;;;;;;;5.35;4.85;;;;;;;26.82;58.70;96208.41;2083359;28;20193;-64
2022/08/17 13:07:13;;;;;;;9.93;4.50;;;;;;;27.08;57.27;96209.81;2082492;28;20224;-64
2022/08/17 13:08:18;;;;;;;9.50;4.82;;;;;;;27.47;53.53;96204.22;2082984;28;20533;-65
2022/08/17 13:09:26;;;;;;;6.78;4.10;;;;;;;27.66;51.62;96199.31;2084425;28;20665;-65
2022/08/17 13:10:40;;;;;;;5.53;4.13;;;;;;;27.70;52.14;96209.47;2082106;28;20288;-64
2022/08/17 13:11:50;;;;;;;7.70;3.95;;;;;;;28.11;48.76;96199.25;2082405;28;20233;-65
2022/08/17 13:12:52;;;;;;;6.30;3.63;;;;;;;28.50;44.47;96193.44;2080112;28;20201;-65
2022/08/17 13:13:55;;;;;;;8.35;4.32;;;;;;;28.81;46.25;96192.31;2082711;28;20252;-64
2022/08/17 13:14:57;;;;;;;9.00;4.00;;;;;;;27.83;48.57;96197.25;2085052;28;20218;-65
2022/08/17 13:16:05;;;;;;;6.35;3.20;;;;;;;27.44;45.93;96190.34;2085854;28;20206;-65
2022/08/17 13:17:08;;;;;;;5.28;3.88;;;;;;;27.72;46.46;96195.03;2082548;28;20236;-65
2022/08/17 13:18:38;;;;;;;8.75;4.72;;;;;;;28.58;45.73;96199.72;2080222;28;20204;-65
2022/08/17 13:19:48;;;;;;;6.82;3.60;;;;;;;28.22;45.72;96192.56;2080738;28;20216;-65
2022/08/17 13:20:54;;;;;;;7.70;4.40;;;;;;;27.85;46.68;96192.53;2081561;28;20209;-65
2022/08/17 13:22:00;;;;;;;4.53;3.08;;;;;;;27.99;46.70;96193.53;2081711;28;20227;-65
2022/08/17 13:23:08;;;;;;;4.00;3.15;;;;;;;27.95;42.67;96193.06;2083202;28;20245;-65
2022/08/17 13:24:24;;;;;;;4.05;3.10;;;;;;;27.93;43.92;96196.97;2083560;28;20235;-65
2022/08/17 13:25:26;;;;;;;11.85;3.25;;;;;;;28.27;44.73;96196.31;2082907;28;20194;-64
2022/08/17 13:26:34;;;;;;;10.32;3.78;;;;;;;27.94;43.58;96187.91;2082161;28;20231;-65
2022/08/17 13:27:40;;;;;;;5.07;3.15;;;;;;;27.93;42.02;96188.91;2082348;28;20826;-65
2022/08/17 13:28:50;;;;;;;7.18;3.60;;;;;;;28.64;41.24;96198.94;2083308;28;20202;-64
2022/08/17 13:29:56;;;;;;;4.28;3.00;;;;;;;28.09;41.77;96199.44;2082982;28;20190;-65
2022/08/17 13:31:20;;;;;;;4.57;3.35;;;;;;;28.37;42.54;96204.06;2084105;28;20548;-64
2022/08/17 13:32:29;;;;;;;5.72;3.17;;;;;;;27.46;42.92;96191.84;2081569;28;20221;-65
2022/08/17 13:33:34;;;;;;;4.43;3.00;;;;;;;28.05;43.00;96198.16;2079768;28;20229;-64
2022/08/17 13:34:55;;;;;;;4.45;3.47;;;;;;;28.28;43.71;96186.44;2081306;28;20296;-65
2022/08/17 13:36:32;;;;;;;8.93;3.55;;;;;;;27.30;45.54;96178.59;2082492;28;20198;-63
2022/08/17 13:37:35;;;;;;;9.38;3.10;;;;;;;27.40;41.28;96183.72;2078843;28;20202;-63
2022/08/17 13:38:48;;;;;;;5.25;3.22;;;;;;;27.98;41.55;96186.50;2078836;28;20213;-64
2022/08/17 13:39:51;;;;;;;6.43;3.30;;;;;;;27.57;41.32;96182.50;2083070;28;20240;-63
2022/08/17 13:40:53;;;;;;;5.28;3.40;;;;;;;27.76;43.50;96186.44;2081664;28;20712;-63
2022/08/17 13:41:54;;;;;;;4.82;3.67;;;;;;;27.35;43.38;96186.91;2083412;28;20735;-63
2022/08/17 13:42:57;;;;;;;12.63;3.60;;;;;;;26.83;44.33;96181.44;2080542;28;20205;-63
2022/08/17 13:43:59;;;;;;;8.15;3.60;;;;;;;26.52;44.58;96189.53;2078751;28;20209;-63
2022/08/17 13:45:01;;;;;;;6.85;2.83;;;;;;;25.81;45.37;96186.97;2078894;28;20194;-63
2022/08/17 13:46:30;;;;;;;6.85;4.13;;;;;;;26.03;47.66;96185.34;2084799;28;20205;-63
2022/08/17 13:47:33;;;;;;;5.90;3.65;;;;;;;26.31;47.67;96182.16;2081176;28;20668;-64
2022/08/17 13:48:34;;;;;;;5.07;3.63;;;;;;;25.74;48.66;96182.31;2081815;28;20660;-65
2022/08/17 13:49:36;;;;;;;6.78;3.95;;;;;;;25.89;49.08;96185.09;2082551;28;20509;-65
2022/08/17 13:50:55;;;;;;;7.75;3.72;;;;;;;26.21;49.53;96179.75;2082636;28;20202;-64
2022/08/17 13:51:56;;;;;;;4.95;3.30;;;;;;;26.79;47.91;96171.25;2084618;28;20229;-64
2022/08/17 13:52:58;;;;;;;5.70;3.42;;;;;;;26.41;47.31;96174.75;2084395;28;20208;-64
2022/08/17 13:54:02;;;;;;;4.55;3.30;;;;;;;27.09;46.21;96165.94;2076645;28;20194;-65
2022/08/17 13:55:23;;;;;;;5.85;3.55;;;;;;;27.20;46.90;96165.50;2075364;28;20198;-64
2022/08/17 13:56:29;;;;;;;7.10;4.03;;;;;;;27.01;46.43;96153.47;2075601;28;20205;-65
2022/08/17 13:57:45;;;;;;;7.00;3.92;;;;;;;26.50;47.69;96152.25;2076869;28;20197;-65
2022/08/17 13:58:54;;;;;;;11.13;3.80;;;;;;;26.63;48.40;96156.16;2084895;28;20343;-64
2022/08/17 14:00:16;;;;;;;6.57;3.97;;;;;;;26.44;48.82;96154.81;2083906;28;20204;-64
2022/08/17 14:01:36;;;;;;;9.43;4.32;;;;;;;27.34;47.44;96147.75;2077061;28;20202;-66
2022/08/17 14:02:37;;;;;;;10.93;4.55;;;;;;;27.28;47.47;96152.00;2077514;28;20201;-66
2022/08/17 14:03:39;;;;;;;6.60;4.75;;;;;;;27.54;47.02;96154.22;2077987;28;20553;-66
2022/08/17 14:04:46;;;;;;;6.30;3.50;;;;;;;27.62;45.60;96147.91;2075471;28;20213;-66
2022/08/17 14:05:49;;;;;;;5.60;3.83;;;;;;;27.78;44.37;96143.34;2077517;28;20194;-66
2022/08/17 14:06:55;;;;;;;10.98;3.53;;;;;;;28.12;43.26;96147.25;2076891;28;20684;-66
2022/08/17 14:08:01;;;;;;;10.02;4.00;;;;;;;28.01;44.99;96138.66;2076780;28;20688;-66
2022/08/17 14:09:07;;;;;;;9.07;3.67;;;;;;;28.49;42.90;96140.78;2077939;28;20198;-66
2022/08/17 14:10:16;;;;;;;6.28;3.80;;;;;;;28.80;43.31;96141.47;2077548;28;20202;-66
2022/08/17 14:11:18;;;;;;;6.38;3.53;;;;;;;28.62;43.93;96144.59;2076059;28;20217;-66
2022/08/17 14:12:23;;;;;;;7.47;3.97;;;;;;;28.53;42.84;96141.19;2076852;28;20243;-63
2022/08/17 14:13:25;;;;;;;4.63;3.33;;;;;;;28.64;43.76;96142.53;2077483;28;20206;-63
2022/08/17 14:14:28;;;;;;;6.30;3.80;;;;;;;27.61;44.14;96140.88;2076529;28;20681;-63
2022/08/17 14:15:31;;;;;;;4.15;3.53;;;;;;;27.65;44.87;96144.03;2076477;28;20232;-63
2022/08/17 14:16:53;;;;;;;5.70;3.63;;;;;;;28.61;41.61;96143.75;2078312;28;20229;-63
2022/08/17 14:17:54;;;;;;;6.78;3.60;;;;;;;29.06;41.91;96148.03;2079680;28;20680;-63
2022/08/17 14:18:56;;;;;;;5.68;3.80;;;;;;;28.71;40.98;96142.63;2079868;28;20205;-63
2022/08/17 14:19:58;;;;;;;5.65;3.50;;;;;;;29.27;41.31;96129.13;2075901;28;20668;-64
2022/08/17 14:20:59;;;;;;;5.70;3.33;;;;;;;29.13;41.68;96132.78;2079444;28;20198;-63
2022/08/17 14:22:01;;;;;;;6.22;4.13;;;;;;;29.87;40.68;96131.25;2074837;28;20221;-64
2022/08/17 14:23:03;;;;;;;7.13;3.20;;;;;;;30.28;39.73;96133.03;2078222;28;20284;-64
2022/08/17 14:24:12;;;;;;;10.20;4.53;;;;;;;30.54;39.64;96126.03;2077123;28;20197;-64
2022/08/17 14:25:17;;;;;;;8.32;4.30;;;;;;;30.87;38.16;96125.16;2078115;28;20194;-64
2022/08/17 14:26:19;;;;;;;6.30;3.72;;;;;;;30.21;39.41;96126.81;2076032;28;20645;-64
2022/08/17 14:27:26;;;;;;;4.85;3.15;;;;;;;30.95;39.60;96126.81;2077259;28;20293;-64
2022/08/17 14:28:28;;;;;;;4.72;3.45;;;;;;;31.42;38.61;96129.41;2078495;28;20302;-64
2022/08/17 14:29:32;;;;;;;11.68;3.78;;;;;;;31.41;37.90;96131.28;2077383;28;20751;-64
2022/08/17 14:30:34;;;;;;;4.90;3.37;;;;;;;31.56;37.03;96124.81;2076387;28;20697;-64
2022/08/17 14:31:35;;;;;;;8.67;3.43;;;;;;;31.37;37.63;96124.66;2083845;28;20453;-64
2022/08/17 14:32:40;;;;;;;8.00;3.70;;;;;;;31.18;37.80;96129.06;2084465;28;20438;-64
2022/08/17 14:33:41;;;;;;;10.20;3.87;;;;;;;31.12;38.28;96123.69;2073177;28;20439;-64
2022/08/17 14:34:44;;;;;;;4.27;3.10;;;;;;;30.77;40.11;96119.38;2073039;28;20438;-64
2022/08/17 14:35:46;;;;;;;6.80;3.20;;;;;;;30.04;40.19;96121.00;2078338;28;20817;-64
2022/08/17 14:36:47;;;;;;;5.40;3.20;;;;;;;30.36;39.79;96121.22;2076453;28;20463;-64
2022/08/17 14:37:51;;;;;;;6.10;3.20;;;;;;;30.44;37.60;96112.13;2077116;28;20434;-64
2022/08/17 14:38:52;;;;;;;7.80;3.80;;;;;;;30.20;39.12;96124.31;2079881;28;20456;-64
2022/08/17 14:39:56;;;;;;;6.97;3.80;;;;;;;29.76;39.11;96121.06;2072982;28;20749;-64
2022/08/17 14:40:58;;;;;;;6.90;3.10;;;;;;;29.62;37.83;96120.19;2072776;28;20496;-64
2022/08/17 14:42:00;;;;;;;5.63;3.70;;;;;;;29.58;36.80;96125.16;2076767;28;20467;-64
2022/08/17 14:43:01;;;;;;;6.33;3.07;;;;;;;29.31;37.71;96129.59;2080245;28;20428;-64
2022/08/17 14:44:03;;;;;;;7.93;3.10;;;;;;;29.12;38.14;96128.44;2074884;28;20427;-64
2022/08/17 14:45:07;;;;;;;3.97;3.00;;;;;;;29.18;38.12;96133.03;2074420;28;20443;-64
2022/08/17 14:46:29;;;;;;;7.03;2.63;;;;;;;28.46;40.97;96132.28;2074547;28;20459;-64
2022/08/17 14:47:32;;;;;;;5.83;3.40;;;;;;;28.07;41.64;96133.56;2075448;28;20426;-64
2022/08/17 14:48:37;;;;;;;3.90;2.90;;;;;;;28.37;39.53;96130.75;2075355;28;21173;-64
2022/08/17 14:49:38;;;;;;;4.80;2.80;;;;;;;28.46;39.34;96133.09;2075663;28;20493;-64
2022/08/17 14:50:41;;;;;;;4.60;3.30;;;;;;;28.22;39.42;96131.66;2075661;28;20438;-64
2022/08/17 14:51:43;;;;;;;5.35;3.05;;;;;;;28.33;39.14;96136.50;2075612;28;20961;-64
2022/08/17 14:52:46;;;;;;;3.90;2.73;;;;;;;27.81;39.38;96127.72;2076097;28;20253;-64
2022/08/17 14:53:48;;;;;;;3.28;2.78;;;;;;;27.48;39.40;96130.03;2076416;28;20431;-64
2022/08/17 14:54:51;;;;;;;4.38;2.78;;;;;;;27.42;39.85;96128.91;2076993;28;20205;-64
2022/08/17 14:55:53;;;;;;;7.72;3.40;;;;;;;27.69;38.98;96121.16;2077604;28;20206;-64
2022/08/17 14:56:54;;;;;;;3.88;2.83;;;;;;;27.85;38.50;96128.97;2076262;28;20221;-64
2022/08/17 14:58:16;;;;;;;4.72;2.85;;;;;;;27.88;38.90;96135.00;2077346;28;20560;-64
2022/08/17 14:59:18;;;;;;;4.95;3.13;;;;;;;27.60;40.13;96133.84;2078448;28;20230;-64
2022/08/17 15:00:19;;;;;;;3.63;2.92;;;;;;;27.46;40.47;96130.19;2079281;28;20204;-64
2022/08/17 15:01:23;;;;;;;3.63;2.60;;;;;;;27.30;40.93;96130.34;2074261;28;20198;-64
2022/08/17 15:02:26;;;;;;;4.45;3.03;;;;;;;27.15;41.08;96128.53;2074362;28;20256;-63
2022/08/17 15:03:31;;;;;;;5.70;3.10;;;;;;;27.26;40.81;96129.06;2074752;28;20324;-64
2022/08/17 15:04:32;;;;;;;5.22;3.05;;;;;;;27.03;41.86;96136.22;2074092;28;20202;-64
2022/08/17 15:05:36;;;;;;;5.68;3.47;;;;;;;27.07;41.54;96128.63;2076092;28;20213;-64
2022/08/17 15:06:37;;;;;;;4.43;2.92;;;;;;;27.16;41.58;96130.19;2076624;28;20225;-64
2022/08/17 15:07:39;;;;;;;3.28;2.42;;;;;;;27.18;41.56;96140.72;2078049;28;20641;-63
2022/08/17 15:08:41;;;;;;;5.68;3.10;;;;;;;26.99;42.65;96132.22;2077422;28;20694;-64
2022/08/17 15:09:44;;;;;;;5.47;3.55;;;;;;;27.04;40.66;96132.50;2076570;28;20668;-63
2022/08/17 15:10:48;;;;;;;5.90;2.90;;;;;;;27.06;40.52;96129.66;2072636;28;20202;-64
2022/08/17 15:11:49;;;;;;;4.95;3.08;;;;;;;26.65;41.69;96130.88;2072321;28;20256;-64
2022/08/17 15:12:51;;;;;;;4.90;3.20;;;;;;;26.49;41.32;96131.03;2074484;28;20194;-63
2022/08/17 15:13:52;;;;;;;3.80;3.17;;;;;;;26.70;40.87;96135.66;2077023;28;20199;-63
2022/08/17 15:14:54;;;;;;;5.35;2.90;;;;;;;26.34;41.18;96113.06;2077096;28;20209;-63
2022/08/17 15:15:55;;;;;;;8.27;3.42;;;;;;;26.43;41.97;96126.41;2075681;28;20203;-64
2022/08/17 15:16:58;;;;;;;6.35;3.90;;;;;;;26.51;42.18;96120.94;2075712;28;20750;-64
2022/08/17 15:18:00;;;;;;;7.78;2.75;;;;;;;26.53;40.52;96117.09;2076026;28;20221;-64
2022/08/17 15:19:05;;;;;;;5.05;2.88;;;;;;;26.19;40.11;96115.69;2072823;28;20198;-64
2022/08/17 15:20:09;;;;;;;4.93;3.25;;;;;;;26.30;40.17;96114.44;2072696;28;20195;-64
2022/08/17 15:21:15;;;;;;;7.15;3.10;;;;;;;26.33;41.35;96113.25;2076245;28;20209;-64
2022/08/17 15:22:22;;;;;;;5.80;2.55;;;;;;;26.43;41.39;96113.84;2076475;28;21174;-64
2022/08/17 15:23:25;;;;;;;4.50;2.95;;;;;;;26.58;41.84;96118.41;2076670;28;20190;-64
2022/08/17 15:24:27;;;;;;;8.55;2.90;;;;;;;26.72;41.89;96117.59;2077408;28;20206;-64
2022/08/17 15:25:30;;;;;;;4.18;3.08;;;;;;;26.72;41.50;96121.09;2077366;28;20217;-64
2022/08/17 15:26:32;;;;;;;5.82;4.13;;;;;;;26.77;41.58;96109.88;2075198;28;20359;-64
2022/08/17 15:27:34;;;;;;;5.40;3.05;;;;;;;26.92;41.58;96115.22;2075941;28;20236;-65
2022/08/17 15:28:36;;;;;;;10.10;3.25;;;;;;;26.75;41.71;96119.09;2075965;28;20198;-65
2022/08/17 15:29:38;;;;;;;4.82;3.50;;;;;;;26.48;41.43;96118.66;2076376;28;20541;-65
2022/08/17 15:30:42;;;;;;;4.53;2.97;;;;;;;26.34;41.47;96104.22;2076668;28;20208;-65
2022/08/17 15:31:43;;;;;;;4.18;2.90;;;;;;;26.49;41.34;96126.50;2075399;28;20233;-65
2022/08/17 15:32:45;;;;;;;6.15;3.63;;;;;;;26.37;41.65;96115.41;2076125;28;20193;-65
2022/08/17 15:33:56;;;;;;;4.07;3.22;;;;;;;26.18;42.44;96124.75;2076156;28;20379;-65
2022/08/17 15:35:00;;;;;;;5.57;3.45;;;;;;;25.91;42.95;96124.25;2076633;28;20837;-65
2022/08/17 15:36:05;;;;;;;4.63;3.17;;;;;;;25.87;43.28;96124.78;2076851;28;20194;-65
2022/08/17 15:37:06;;;;;;;8.95;3.50;;;;;;;25.92;43.47;96128.56;2078600;28;20237;-64
2022/08/17 15:38:09;;;;;;;6.45;3.42;;;;;;;25.89;43.82;96117.38;2072664;28;20202;-65
2022/08/17 15:39:12;;;;;;;6.50;3.40;;;;;;;26.05;43.21;96117.31;2078669;28;20206;-64
2022/08/17 15:40:19;;;;;;;7.20;3.50;;;;;;;26.05;43.38;96119.16;2076732;28;20682;-65
2022/08/17 15:41:21;;;;;;;6.25;3.15;;;;;;;26.19;44.28;96110.34;2074436;28;20251;-65
2022/08/17 15:42:22;;;;;;;9.77;3.90;;;;;;;26.35;43.59;96113.91;2076528;28;20277;-65
2022/08/17 15:43:27;;;;;;;4.35;3.08;;;;;;;26.46;44.29;96110.81;2072529;28;20203;-65
2022/08/17 15:44:28;;;;;;;6.47;3.50;;;;;;;26.47;43.39;96106.28;2073288;28;20203;-65
2022/08/17 15:45:35;;;;;;;6.50;3.53;;;;;;;26.54;42.92;96116.06;2077306;28;20341;-65
2022/08/17 15:46:37;;;;;;;6.85;3.53;;;;;;;26.60;43.44;96111.00;2076124;28;20221;-66
2022/08/17 15:47:39;;;;;;;5.00;3.15;;;;;;;26.61;43.51;96112.66;2076503;28;20198;-65
2022/08/17 15:48:43;;;;;;;4.88;3.25;;;;;;;26.68;43.56;96117.13;2075726;28;20210;-65
2022/08/17 15:49:45;;;;;;;6.95;3.83;;;;;;;26.67;43.16;96125.34;2076252;28;20204;-65
2022/08/17 15:50:47;;;;;;;4.30;3.40;;;;;;;26.67;42.99;96122.66;2078615;28;20248;-65
2022/08/17 15:51:48;;;;;;;8.05;3.22;;;;;;;26.68;43.10;96125.16;2078826;28;20226;-65
2022/08/17 15:52:55;;;;;;;3.97;3.50;;;;;;;26.68;43.92;96129.69;2072684;28;20530;-65
